Terminal Aerodrome Forecast
Issued by NWS Bismarck, ND

Home | Current Version | Previous Version | Text Only | Print | Product List | Glossary On
Versions: 1 2 3 4 5 6 7 8 9 10 11 12 13 14 15 16 17 18 19 20
054
FTUS43 KBIS 140152 AAA
TAFBIS
TAF AMD
KBIS 140152Z 1402/1424 15013KT P6SM -SN SCT015 OVC035
     FM140330 14012KT P6SM VCSH OVC015
     FM141000 28009KT P6SM OVC015
     FM141800 29009KT P6SM SCT025 BKN100=

USA.gov is the U.S. government's official web portal to all federal, state and local government web resources and services.